Nearby METAR Reports

 

KGSP - Greer/Spartansbg, South Carolina, USA
Distance from station: E 4mi, 6km
Updated: Thu, 05-Aug-2021 5:53am EDT
Overcast
Overcast
 Wind from N
Wind: N 5 mph , 7 km/h
Temperature: 68°F , 20°C
Dew Point: 64°F , 18°C
Humidity: 88%
Barometer: 30.13 inHg , 1020.3 hPa
Clouds: Overcast
Visibility: 10 miles , 16 km
Cloud details: Mostly cloudy 3300 ft
Overcast 7000 ft
2021/08/05 09:53 KGSP 050953Z AUTO 01004KT 10SM BKN033 OVC070 20/18 A3013 RMK AO2 SLP194 T02000178
KGMU - Greenville, South Carolina, USA
Distance from station: SW 5mi, 8km
Updated: Thu, 05-Aug-2021 5:53am EDT
Light rain, Overcast
Light rain, Overcast
 Wind from NE
Wind: NE 6 mph , 9 km/h
Temperature: 72°F , 22°C
Dew Point: 64°F , 18°C
Humidity: 78%
Barometer: 30.14 inHg , 1020.7 hPa
Summary: Light rain
Clouds: Overcast
Visibility: 10 miles , 16 km
Cloud details: Partly cloudy 3100 ft
Mostly cloudy 4500 ft
Overcast 7000 ft
2021/08/05 09:53 KGMU 050953Z AUTO 04005KT 10SM -RA SCT031 BKN045 OVC070 22/18 A3014 RMK AO2 RAB44 SLP195 P0000 T02170183
 
KGYH - Greenville, South Carolina, USA
Distance from station: SSW 11mi, 18km
Updated: Thu, 05-Aug-2021 5:55am EDT
Overcast
Overcast
 Wind from NNE
Wind: NNE 7 mph , 11 km/h
Temperature: 68°F , 20°C
Dew Point: 66°F , 19°C
Humidity: 94%
Barometer: 30.13 inHg , 1020.3 hPa
Clouds: Overcast
Visibility: 10 miles , 16 km
Cloud details: Partly cloudy 3300 ft
Mostly cloudy 4000 ft
Overcast 7000 ft
2021/08/05 09:55 KGYH 050955Z AUTO 03006KT 10SM SCT033 BKN040 OVC070 20/19 A3013 RMK A02 T02050187
KSPA - Spartanburg, South Carolina, USA
Distance from station: E 20mi, 32km
Updated: Thu, 05-Aug-2021 5:55am EDT
Overcast
Overcast
 Wind from calm
Wind: Calm
Temperature: 68°F , 20°C
Dew Point: 64°F , 18°C
Humidity: 88%
Barometer: 30.12 inHg , 1020 hPa
Clouds: Overcast
Visibility: 10 miles , 16 km
Cloud details: Mostly cloudy 4000 ft
Overcast 5000 ft
2021/08/05 09:55 KSPA 050955Z AUTO 00000KT 10SM BKN040 OVC050 20/18 A3012 RMK AO2
 
KLQK - Pickens, South Carolina, USA
Distance from station: WSW 24mi, 39km
Updated: Thu, 05-Aug-2021 5:55am EDT
Overcast
Overcast
 Wind from calm
Wind: Calm
Temperature: 66°F , 19°C
Dew Point: 66°F , 19°C
Humidity: 100%
Barometer: 30.12 inHg , 1020 hPa
Clouds: Overcast
Visibility: 10 miles , 16 km
Cloud details: Overcast 6000 ft
2021/08/05 09:55 KLQK 050955Z AUTO 00000KT 10SM OVC060 19/19 A3012 RMK AO2 T01920189
KLUX - Laurens, South Carolina, USA
Distance from station: SE 33mi, 54km
Updated: Thu, 05-Aug-2021 5:55am EDT
Clear
Clear
 Wind from calm
Wind: Calm
Temperature: 64°F , 18°C
Dew Point: 64°F , 18°C
Humidity: 100%
Barometer: 30.12 inHg , 1020 hPa
Clouds: Clear
Visibility: 7 miles , 11 km
2021/08/05 09:55 KLUX 050955Z AUTO 00000KT 7SM CLR 18/18 A3012 RMK AO2
 
KAND - Anderson, South Carolina, USA
Distance from station: SW 37mi, 59km
Updated: Thu, 05-Aug-2021 5:56am EDT
Overcast
Overcast
 Wind from calm
Wind: Calm
Temperature: 68°F , 20°C
Dew Point: 66°F , 19°C
Humidity: 94%
Barometer: 30.12 inHg , 1020 hPa
Clouds: Overcast
Visibility: 10 miles , 16 km
Cloud details: Overcast 4400 ft
2021/08/05 09:56 KAND 050956Z AUTO 00000KT 10SM OVC044 20/19 A3012 RMK AO2 SLP190 T02000189
KCEU - Clemson, South Carolina, USA
Distance from station: WSW 37mi, 60km
Updated: Thu, 05-Aug-2021 5:54am EDT
Overcast
Overcast
 Wind from NE
Wind: NE 3 mph , 6 km/h
Temperature: 70°F , 21°C
Dew Point: 66°F , 19°C
Humidity: 88%
Barometer: 30.13 inHg , 1020.3 hPa
Clouds: Overcast
Visibility: 10 miles , 16 km
Cloud details: Overcast 5500 ft
2021/08/05 09:54 KCEU 050954Z AUTO 04003KT 10SM OVC055 21/19 A3013 RMK AO2 SLP191 T02060189
 
KAVL - Asheville, North Carolina, USA
Distance from station: NNW 40mi, 64km
Updated: Thu, 05-Aug-2021 5:54am EDT
Overcast
Overcast
 Wind from calm
Wind: Calm
Temperature: 64°F , 18°C
Dew Point: 63°F , 17°C
Humidity: 94%
Barometer: 30.18 inHg , 1022 hPa
Clouds: Overcast
Visibility: 10 miles , 16 km
Cloud details: Mostly cloudy 3300 ft
Overcast 6500 ft
2021/08/05 09:54 KAVL 050954Z AUTO 00000KT 10SM BKN033 OVC065 18/17 A3018 RMK AO2 SLP198 T01830167
KFQD - Rutherfordton, North Carolina, USA
Distance from station: NNE 41mi, 66km
Updated: Mon, 26-Jul-2021 3:15pm EDT
NOT Current
Heavy thunderstorm, Rain, Overcast
Heavy thunderstorm, Rain, Overcast
 Wind from NNE
Wind: NNE 17 mph , 28 km/h, Gust: 24 mph , 39 km/h
Temperature: 73°F , 23°C
Dew Point: 73°F , 23°C
Humidity: 100%
Barometer: 30.01 inHg , 1016.3 hPa
Summary: Heavy thunderstorm, Rain
Clouds: Overcast
Visibility: 1 3/4 miles , 2.8 km
Cloud details: Mostly cloudy 1300 ft
Mostly cloudy 2500 ft
Overcast 3200 ft
2021/07/26 19:15 KFQD 261915Z AUTO 03015G21KT 1 3/4SM +TSRA BKN013 BKN025 OVC032 23/23 A3001 RMK AO2 LTG DSNT NW THRU E P0007
 
KGRD - Greenwood, South Carolina, USA
Distance from station: S 45mi, 73km
Updated: Thu, 05-Aug-2021 5:56am EDT
Mist, Clear
Mist, Clear
 Wind from NNW
Wind: NNW 5 mph , 7 km/h
Temperature: 64°F , 18°C
Dew Point: 64°F , 18°C
Humidity: 100%
Barometer: 30.12 inHg , 1020 hPa
Summary: Mist
Clouds: Clear
Visibility: 6 miles , 10 km
2021/08/05 09:56 KGRD 050956Z AUTO 34004KT 6SM BR CLR 18/18 A3012 RMK AO2 SLP194 T01830183
KEHO - Shelby Muni, North Carolina, USA
Distance from station: ENE 46mi, 74km
Updated: Thu, 05-Aug-2021 5:55am EDT
Overcast
Overcast
 Wind from calm
Wind: Calm
Temperature: 68°F , 20°C
Dew Point: 64°F , 18°C
Humidity: 88%
Barometer: 30.13 inHg , 1020.3 hPa
Clouds: Overcast
Visibility: 10 miles , 16 km
Cloud details: Overcast 7000 ft
2021/08/05 09:55 KEHO 050955Z AUTO 00000KT 10SM OVC070 20/18 A3013 RMK AO2 T02010183